createdAt,value
2023-03-04T00:00:58.549Z,2.90
2023-03-04T00:03:43.984Z,2.83
2023-03-04T00:06:29.776Z,2.55
2023-03-04T00:09:15.010Z,2.72
2023-03-04T00:12:00.813Z,1.95
2023-03-04T00:14:46.667Z,2.92
2023-03-04T00:17:32.166Z,2.05
2023-03-04T00:20:17.836Z,2.60
2023-03-04T00:23:03.519Z,1.85
2023-03-04T00:25:49.418Z,2.17
2023-03-04T00:28:35.248Z,2.50
2023-03-04T00:31:20.940Z,2.72
2023-03-04T00:34:06.733Z,1.63
2023-03-04T00:36:52.778Z,1.90
2023-03-04T00:39:38.781Z,1.55
2023-03-04T00:42:26.424Z,1.80
2023-03-04T00:45:23.360Z,1.92
2023-03-04T00:48:09.364Z,1.95
2023-03-04T00:51:01.908Z,2.75
2023-03-04T00:53:47.618Z,2.38
2023-03-04T00:56:33.078Z,2.25
2023-03-04T00:59:27.949Z,2.95
2023-03-04T01:02:14.578Z,2.30
2023-03-04T01:05:00.270Z,2.20
2023-03-04T01:07:45.953Z,1.92
2023-03-04T01:10:34.706Z,2.22
2023-03-04T01:13:20.216Z,1.77
2023-03-04T01:16:07.701Z,1.83
2023-03-04T01:18:53.226Z,2.05
2023-03-04T01:21:38.427Z,2.25
2023-03-04T01:24:23.978Z,1.73
2023-03-04T01:27:11.797Z,1.38
2023-03-04T01:29:58.143Z,2.83
2023-03-04T01:32:43.609Z,1.75
2023-03-04T01:35:29.031Z,1.70
2023-03-04T01:38:14.557Z,3.05
2023-03-04T01:41:00.192Z,2.03
2023-03-04T01:43:45.694Z,2.55
2023-03-04T01:49:41.331Z,2.38
2023-03-04T01:52:27.928Z,1.88
2023-03-04T01:55:23.270Z,1.38
2023-03-04T02:01:36.461Z,1.80
2023-03-04T02:04:24.921Z,2.90
2023-03-04T02:07:32.688Z,1.77
2023-03-04T02:10:20.416Z,1.75
2023-03-04T02:13:07.363Z,1.92
2023-03-04T02:15:52.974Z,2.30
2023-03-04T02:18:47.231Z,2.30
2023-03-04T02:21:38.454Z,1.73
2023-03-04T02:24:36.090Z,1.95
2023-03-04T02:27:29.374Z,2.13
2023-03-04T02:30:15.414Z,2.35
2023-03-04T02:33:01.110Z,1.65
2023-03-04T02:35:48.982Z,1.67
2023-03-04T02:38:35.417Z,1.58
2023-03-04T02:41:24.743Z,1.65
2023-03-04T02:44:18.136Z,1.55
2023-03-04T02:49:51.821Z,1.65
2023-03-04T02:52:40.496Z,1.85
2023-03-04T02:55:28.690Z,1.52
2023-03-04T02:58:14.369Z,1.85
2023-03-04T03:01:12.650Z,1.70
2023-03-04T03:03:57.977Z,1.63
2023-03-04T03:06:43.909Z,1.85
2023-03-04T03:09:53.912Z,2.38
2023-03-04T03:12:59.029Z,1.33
2023-03-04T03:15:45.100Z,2.10
2023-03-04T03:18:40.489Z,1.55
2023-03-04T03:21:29.355Z,1.83
2023-03-04T03:24:15.322Z,1.70
2023-03-04T03:27:00.640Z,1.60
2023-03-04T03:29:50.100Z,1.60
2023-03-04T03:32:35.780Z,1.85
2023-03-04T03:35:21.397Z,2.05
2023-03-04T03:38:06.887Z,1.30
2023-03-04T03:40:52.481Z,1.30
2023-03-04T03:43:37.620Z,1.92
2023-03-04T03:46:23.183Z,2.38
2023-03-04T03:49:26.154Z,1.88
2023-03-04T03:52:13.006Z,2.33
2023-03-04T03:55:02.089Z,1.67
2023-03-04T03:57:51.927Z,1.50
2023-03-04T04:00:43.658Z,1.10
2023-03-04T04:03:31.143Z,1.55
2023-03-04T04:06:16.728Z,1.83
2023-03-04T04:09:02.016Z,1.30
2023-03-04T04:11:47.623Z,2.15
2023-03-04T04:14:40.809Z,1.40
2023-03-04T04:17:26.597Z,1.55
2023-03-04T04:20:12.514Z,2.05
2023-03-04T04:22:58.007Z,2.25
2023-03-04T04:25:50.109Z,1.85
2023-03-04T04:28:37.751Z,1.50
2023-03-04T04:31:23.641Z,1.33
2023-03-04T04:34:13.276Z,1.17
2023-03-04T04:37:00.295Z,1.88
2023-03-04T04:39:45.499Z,1.38
2023-03-04T04:42:31.038Z,1.13
2023-03-04T04:45:46.179Z,1.17
2023-03-04T04:48:35.209Z,1.90
2023-03-04T04:51:20.434Z,1.67
2023-03-04T04:54:06.312Z,1.10
2023-03-04T04:56:51.598Z,1.23
2023-03-04T04:59:36.916Z,1.15
2023-03-04T05:02:22.390Z,1.48
2023-03-04T05:05:08.372Z,2.13
2023-03-04T05:07:53.956Z,1.80
2023-03-04T05:10:39.533Z,1.30
2023-03-04T05:13:25.539Z,1.63
2023-03-04T05:16:11.313Z,1.50
2023-03-04T05:18:57.225Z,1.30
2023-03-04T05:21:42.440Z,1.27
2023-03-04T05:24:28.001Z,1.50
2023-03-04T05:27:29.072Z,1.88
2023-03-04T05:30:14.551Z,1.67
2023-03-04T05:33:00.205Z,1.75
2023-03-04T05:35:46.698Z,1.83
2023-03-04T05:38:32.178Z,2.10
2023-03-04T05:41:20.471Z,2.83
2023-03-04T05:44:06.377Z,2.30
2023-03-04T05:46:51.701Z,1.98
2023-03-04T05:49:37.161Z,2.75
2023-03-04T05:52:22.860Z,2.22
2023-03-04T05:55:09.205Z,2.72
2023-03-04T05:57:54.945Z,3.15
2023-03-04T06:00:40.415Z,2.30
2023-03-04T06:03:25.854Z,2.80
2023-03-04T06:06:11.508Z,2.45
2023-03-04T06:08:56.754Z,2.38
2023-03-04T06:11:42.601Z,2.42
2023-03-04T06:14:28.307Z,2.42
2023-03-04T06:17:13.819Z,3.05
2023-03-04T06:19:59.626Z,3.33
2023-03-04T06:22:45.234Z,2.60
2023-03-04T06:25:30.897Z,2.80
2023-03-04T06:28:16.680Z,3.67
2023-03-04T06:31:02.516Z,3.35
2023-03-04T06:33:48.619Z,3.75
2023-03-04T06:36:34.400Z,3.40
2023-03-04T06:39:20.033Z,3.53
2023-03-04T06:42:05.775Z,3.80
2023-03-04T06:44:51.147Z,3.95
2023-03-04T06:47:36.843Z,3.65
2023-03-04T06:50:22.627Z,3.92
2023-03-04T06:53:08.632Z,3.88
2023-03-04T06:55:53.891Z,3.42
2023-03-04T06:58:39.489Z,3.15
2023-03-04T07:01:27.911Z,2.88
2023-03-04T07:04:14.802Z,4.25
2023-03-04T07:07:00.547Z,3.70
2023-03-04T07:09:46.405Z,3.90
2023-03-04T07:12:32.145Z,2.45
2023-03-04T07:15:17.381Z,2.50
2023-03-04T07:18:03.056Z,3.83
2023-03-04T07:20:52.928Z,3.15
2023-03-04T07:23:38.738Z,3.00
2023-03-04T07:26:24.501Z,2.25
2023-03-04T07:29:10.011Z,2.05
2023-03-04T07:31:55.774Z,2.00
2023-03-04T07:34:41.385Z,2.00
2023-03-04T07:37:26.897Z,1.83
2023-03-04T07:40:12.781Z,2.28
2023-03-04T07:42:58.456Z,2.38
2023-03-04T07:45:44.067Z,2.20
2023-03-04T07:48:30.127Z,1.95
2023-03-04T07:51:19.189Z,2.38
2023-03-04T07:54:05.160Z,1.88
2023-03-04T07:56:51.003Z,1.90
2023-03-04T07:59:36.907Z,2.20
2023-03-04T08:02:22.290Z,3.13
2023-03-04T08:05:08.539Z,2.30
2023-03-04T08:07:53.656Z,2.63
2023-03-04T08:10:39.888Z,2.13
2023-03-04T08:13:25.977Z,1.75
2023-03-04T08:16:17.139Z,1.75
2023-03-04T08:19:04.342Z,2.50
2023-03-04T08:21:49.992Z,2.15
2023-03-04T08:24:35.733Z,2.53
2023-03-04T08:27:21.822Z,2.45
2023-03-04T08:30:08.476Z,2.30
2023-03-04T08:32:53.893Z,2.05
2023-03-04T08:35:40.566Z,1.45
2023-03-04T08:38:26.519Z,3.25
2023-03-04T08:41:12.632Z,1.58
2023-03-04T08:43:58.619Z,1.48
2023-03-04T08:46:44.396Z,1.30
2023-03-04T08:49:29.893Z,1.88
2023-03-04T08:52:15.681Z,2.13
2023-03-04T08:55:00.874Z,2.03
2023-03-04T08:57:46.654Z,1.70
2023-03-04T09:00:35.121Z,1.70
2023-03-04T09:03:21.275Z,1.60
2023-03-04T09:06:08.784Z,2.60
2023-03-04T09:08:54.123Z,1.88
2023-03-04T09:11:39.675Z,1.92
2023-03-04T09:14:25.290Z,1.90
2023-03-04T09:17:10.962Z,1.98
2023-03-04T09:19:59.481Z,1.92
2023-03-04T09:22:44.860Z,1.90
2023-03-04T09:25:30.446Z,1.63
2023-03-04T09:28:16.847Z,1.60
2023-03-04T09:31:02.514Z,1.80
2023-03-04T09:33:48.065Z,2.30
2023-03-04T09:36:33.598Z,1.67
2023-03-04T09:39:19.112Z,1.40
2023-03-04T09:42:07.722Z,1.85
2023-03-04T09:44:54.124Z,1.83
2023-03-04T09:47:40.025Z,1.88
2023-03-04T09:50:26.923Z,2.25
2023-03-04T09:53:27.967Z,1.92
2023-03-04T09:56:14.490Z,1.65
2023-03-04T09:59:17.789Z,2.22
2023-03-04T10:02:19.759Z,1.58
2023-03-04T10:05:07.462Z,2.47
2023-03-04T10:08:03.488Z,2.53
2023-03-04T10:10:51.875Z,1.52
2023-03-04T10:14:08.586Z,1.73
2023-03-04T10:17:15.647Z,2.00
2023-03-04T10:20:18.526Z,1.92
2023-03-04T10:23:21.849Z,1.92
2023-03-04T10:26:16.943Z,1.90
2023-03-04T10:29:06.952Z,2.30
2023-03-04T10:31:56.099Z,2.20
2023-03-04T10:34:41.642Z,2.75
2023-03-04T10:37:49.082Z,2.65
2023-03-04T10:40:39.523Z,3.38
2023-03-04T10:43:25.137Z,3.60
2023-03-04T10:46:12.387Z,2.65
2023-03-04T10:48:58.579Z,2.95
2023-03-04T10:51:46.760Z,2.83
2023-03-04T10:54:32.431Z,2.72
2023-03-04T10:57:37.572Z,2.60
2023-03-04T11:00:36.933Z,3.00
2023-03-04T11:03:30.014Z,3.33
2023-03-04T11:06:23.298Z,3.20
2023-03-04T11:09:28.038Z,3.58
2023-03-04T11:12:16.221Z,3.30
2023-03-04T11:15:03.864Z,3.35
2023-03-04T11:17:53.798Z,3.40
2023-03-04T11:20:46.686Z,4.15
2023-03-04T11:23:44.021Z,3.70
2023-03-04T11:26:51.307Z,4.60
2023-03-04T11:29:57.984Z,4.50
2023-03-04T11:32:48.809Z,5.55
2023-03-04T11:35:53.187Z,5.25
2023-03-04T11:38:44.541Z,4.80
2023-03-04T11:41:35.795Z,4.88
2023-03-04T11:44:21.577Z,4.68
2023-03-04T11:47:22.007Z,5.10
2023-03-04T11:50:12.736Z,4.50
2023-03-04T11:53:25.771Z,4.90
2023-03-04T11:56:44.331Z,4.72
2023-03-04T11:59:38.595Z,4.32
2023-03-04T12:02:32.638Z,4.45
2023-03-04T12:05:30.644Z,4.30
2023-03-04T12:08:32.983Z,4.25
2023-03-04T12:11:50.845Z,4.60
2023-03-04T12:14:42.648Z,3.75
2023-03-04T12:17:39.434Z,3.88
2023-03-04T12:20:30.700Z,3.65
2023-03-04T12:23:44.672Z,3.92
2023-03-04T12:26:49.305Z,3.22
2023-03-04T12:29:55.988Z,3.70
2023-03-04T12:32:52.302Z,3.33
2023-03-04T12:35:41.459Z,3.63
2023-03-04T12:38:30.024Z,3.83
2023-03-04T12:41:39.857Z,3.70
2023-03-04T12:44:25.369Z,3.75
2023-03-04T12:47:16.828Z,3.30
2023-03-04T12:50:05.260Z,3.40
2023-03-04T12:52:59.693Z,2.92
2023-03-04T12:55:47.242Z,2.78
2023-03-04T12:58:35.811Z,2.63
2023-03-04T13:01:32.569Z,2.70
2023-03-04T13:04:32.246Z,2.85
2023-03-04T13:07:45.528Z,2.47
2023-03-04T13:10:30.908Z,2.47
2023-03-04T13:13:40.088Z,2.05
2023-03-04T13:16:36.782Z,2.28
2023-03-04T13:19:47.117Z,2.65
2023-03-04T13:22:35.675Z,2.80
2023-03-04T13:25:46.415Z,3.72
2023-03-04T13:28:35.035Z,3.72
2023-03-04T13:31:24.230Z,4.32
2023-03-04T13:34:45.175Z,4.05
2023-03-04T13:37:37.377Z,3.60
2023-03-04T13:40:24.702Z,3.45
2023-03-04T13:43:28.563Z,3.10
2023-03-04T13:46:19.889Z,3.00
2023-03-04T13:49:08.119Z,3.60
2023-03-04T13:51:53.546Z,3.30
2023-03-04T13:54:39.043Z,3.08
2023-03-04T13:57:24.326Z,3.20
2023-03-04T14:00:14.099Z,2.97
2023-03-04T14:03:13.601Z,3.92
2023-03-04T14:06:18.204Z,4.15
2023-03-04T14:09:15.787Z,4.15
2023-03-04T14:12:05.356Z,3.67
2023-03-04T14:14:55.309Z,4.35
2023-03-04T14:17:45.191Z,4.40
2023-03-04T14:20:33.554Z,5.03
2023-03-04T14:23:36.506Z,4.65
2023-03-04T14:26:21.745Z,5.18
2023-03-04T14:29:23.651Z,4.82
2023-03-04T14:32:12.292Z,4.45
2023-03-04T14:35:03.263Z,3.90
2023-03-04T14:38:23.617Z,3.50
2023-03-04T14:41:18.760Z,3.28
2023-03-04T14:44:20.332Z,3.92
2023-03-04T14:47:13.700Z,2.78
2023-03-04T14:49:59.715Z,2.70
2023-03-04T14:52:48.683Z,2.40
2023-03-04T14:55:34.283Z,2.58
2023-03-04T14:58:26.983Z,2.83
2023-03-04T15:01:20.826Z,2.40
2023-03-04T15:04:11.168Z,2.33
2023-03-04T15:06:56.952Z,2.97
2023-03-04T15:09:42.911Z,3.30
2023-03-04T15:12:35.026Z,2.85
2023-03-04T15:15:40.006Z,3.50
2023-03-04T15:18:29.954Z,4.03
2023-03-04T15:21:21.690Z,4.28
2023-03-04T15:24:10.009Z,3.72
2023-03-04T15:26:55.729Z,3.95
2023-03-04T15:29:41.669Z,3.88
2023-03-04T15:32:31.210Z,4.15
2023-03-04T15:35:19.134Z,4.28
2023-03-04T15:38:11.145Z,4.40
2023-03-04T15:40:59.515Z,7.10
2023-03-04T15:43:45.675Z,4.20
2023-03-04T15:46:30.875Z,4.22
2023-03-04T15:49:16.576Z,3.78
2023-03-04T15:52:05.889Z,4.35
2023-03-04T15:54:51.909Z,4.47
2023-03-04T15:57:37.400Z,3.92
2023-03-04T16:00:24.070Z,3.95
2023-03-04T16:03:18.644Z,4.40
2023-03-04T16:06:08.266Z,4.75
2023-03-04T16:08:53.960Z,4.90
2023-03-04T16:11:44.263Z,5.95
2023-03-04T16:14:29.903Z,5.22
2023-03-04T16:17:16.295Z,5.80
2023-03-04T16:20:02.053Z,4.65
2023-03-04T16:22:50.997Z,5.03
2023-03-04T16:25:37.002Z,4.75
2023-03-04T16:28:23.015Z,4.97
2023-03-04T16:31:11.831Z,4.85
2023-03-04T16:33:59.990Z,5.47
2023-03-04T16:36:45.620Z,4.80
2023-03-04T16:39:31.751Z,4.45
2023-03-04T16:42:19.462Z,4.50
2023-03-04T16:45:05.219Z,4.55
2023-03-04T16:47:51.224Z,4.03
2023-03-04T16:50:37.778Z,3.55
2023-03-04T16:53:36.728Z,4.25
2023-03-04T16:56:23.200Z,4.07
2023-03-04T16:59:16.303Z,4.03
2023-03-04T17:02:02.292Z,3.67
2023-03-04T17:04:50.031Z,3.70
2023-03-04T17:07:36.145Z,3.03
2023-03-04T17:10:23.107Z,3.78
2023-03-04T17:13:08.852Z,3.40
2023-03-04T17:15:54.777Z,3.95
2023-03-04T17:18:41.232Z,4.32
2023-03-04T17:21:27.697Z,3.88
2023-03-04T17:24:13.046Z,5.30
2023-03-04T17:26:58.485Z,5.38
2023-03-04T17:29:44.562Z,4.32
2023-03-04T17:32:32.714Z,4.55
2023-03-04T17:35:19.304Z,4.65
2023-03-04T17:38:05.061Z,5.03
2023-03-04T17:40:50.642Z,6.07
2023-03-04T17:43:36.435Z,6.20
2023-03-04T17:46:24.921Z,5.60
2023-03-04T17:49:12.697Z,5.95
2023-03-04T17:51:58.001Z,5.75
2023-03-04T17:54:45.721Z,4.32
2023-03-04T17:57:31.006Z,4.55
2023-03-04T18:00:17.386Z,4.68
2023-03-04T18:03:03.932Z,4.47
2023-03-04T18:05:49.233Z,4.80
2023-03-04T18:08:34.715Z,5.25
2023-03-04T18:11:22.601Z,4.97
2023-03-04T18:14:08.876Z,5.50
2023-03-04T18:16:54.800Z,4.28
2023-03-04T18:19:40.687Z,4.20
2023-03-04T18:22:26.634Z,4.88
2023-03-04T18:25:13.034Z,5.10
2023-03-04T18:27:58.431Z,5.38
2023-03-04T18:30:47.067Z,5.95
2023-03-04T18:33:33.475Z,5.40
2023-03-04T18:36:19.038Z,6.18
2023-03-04T18:39:07.404Z,6.45
2023-03-04T18:41:53.002Z,6.30
2023-03-04T18:44:38.525Z,6.10
2023-03-04T18:47:26.103Z,6.57
2023-03-04T18:50:14.314Z,6.22
2023-03-04T18:53:00.293Z,6.43
2023-03-04T18:55:46.811Z,8.00
2023-03-04T18:58:35.436Z,11.35
2023-03-04T19:01:25.317Z,11.85
2023-03-04T19:04:13.464Z,10.45
2023-03-04T19:07:00.743Z,7.70
2023-03-04T19:09:46.661Z,6.30
2023-03-04T19:12:34.059Z,6.40
2023-03-04T19:15:20.618Z,5.85
2023-03-04T19:18:06.787Z,4.63
2023-03-04T19:20:52.906Z,5.20
2023-03-04T19:23:38.657Z,4.55
2023-03-04T19:26:24.260Z,4.35
2023-03-04T19:29:10.241Z,4.25
2023-03-04T19:31:56.273Z,4.68
2023-03-04T19:34:42.504Z,4.32
2023-03-04T19:37:28.531Z,4.32
2023-03-04T19:40:14.441Z,4.35
2023-03-04T19:43:00.275Z,5.10
2023-03-04T19:45:55.872Z,4.95
2023-03-04T19:48:41.644Z,4.97
2023-03-04T19:51:27.640Z,4.68
2023-03-04T19:54:13.779Z,5.18
2023-03-04T19:56:59.475Z,5.13
2023-03-04T19:59:45.110Z,4.93
2023-03-04T20:02:30.672Z,5.20
2023-03-04T20:05:16.738Z,4.80
2023-03-04T20:08:02.968Z,4.65
2023-03-04T20:10:48.384Z,4.45
2023-03-04T20:13:33.896Z,4.90
2023-03-04T20:16:22.401Z,5.07
2023-03-04T20:19:08.118Z,5.07
2023-03-04T20:21:53.705Z,4.90
2023-03-04T20:24:39.480Z,5.32
2023-03-04T20:27:25.076Z,5.53
2023-03-04T20:30:11.782Z,5.97
2023-03-04T20:32:57.579Z,6.07
2023-03-04T20:35:43.398Z,6.60
2023-03-04T20:38:29.546Z,7.55
2023-03-04T20:41:15.652Z,6.03
2023-03-04T20:44:02.144Z,6.57
2023-03-04T20:46:48.041Z,5.85
2023-03-04T20:49:37.338Z,6.20
2023-03-04T20:52:23.451Z,6.00
2023-03-04T20:55:09.736Z,5.97
2023-03-04T20:57:55.167Z,6.30
2023-03-04T21:00:40.655Z,6.38
2023-03-04T21:03:26.293Z,8.43
2023-03-04T21:06:15.964Z,7.13
2023-03-04T21:09:04.869Z,7.32
2023-03-04T21:11:51.473Z,7.38
2023-03-04T21:14:39.972Z,6.28
2023-03-04T21:17:25.234Z,6.18
2023-03-04T21:20:17.714Z,6.50
2023-03-04T21:23:03.523Z,7.45
2023-03-04T21:25:49.033Z,6.93
2023-03-04T21:28:35.260Z,6.20
2023-03-04T21:31:29.021Z,6.70
2023-03-04T21:34:22.103Z,7.05
2023-03-04T21:37:08.022Z,6.23
2023-03-04T21:39:55.153Z,6.85
2023-03-04T21:42:41.425Z,6.57
2023-03-04T21:45:27.260Z,6.63
2023-03-04T21:48:13.162Z,6.32
2023-03-04T21:51:07.307Z,6.38
2023-03-04T21:53:53.199Z,6.88
2023-03-04T21:56:39.142Z,7.28
2023-03-04T21:59:24.613Z,6.28
2023-03-04T22:02:22.014Z,6.95
2023-03-04T22:05:07.935Z,6.47
2023-03-04T22:07:53.620Z,7.35
2023-03-04T22:10:40.523Z,7.63
2023-03-04T22:13:26.093Z,7.43
2023-03-04T22:16:11.852Z,7.63
2023-03-04T22:18:57.513Z,8.10
2023-03-04T22:21:43.408Z,6.93
2023-03-04T22:24:29.620Z,8.35
2023-03-04T22:27:15.172Z,6.75
2023-03-04T22:30:00.687Z,7.95
2023-03-04T22:32:48.644Z,7.57
2023-03-04T22:35:34.466Z,7.10
2023-03-04T22:38:21.821Z,7.70
2023-03-04T22:41:14.303Z,7.03
2023-03-04T22:44:00.355Z,7.60
2023-03-04T22:46:46.367Z,6.95
2023-03-04T22:49:33.263Z,7.25
2023-03-04T22:52:18.700Z,7.28
2023-03-04T22:55:04.516Z,6.82
2023-03-04T22:57:50.505Z,7.22
2023-03-04T23:00:38.229Z,7.28
2023-03-04T23:03:23.883Z,7.75
2023-03-04T23:06:14.177Z,6.85
2023-03-04T23:09:00.435Z,6.20
2023-03-04T23:11:45.678Z,6.65
2023-03-04T23:14:31.741Z,6.75
2023-03-04T23:17:17.360Z,6.93
2023-03-04T23:20:03.346Z,6.10
2023-03-04T23:22:49.578Z,7.70
2023-03-04T23:25:36.317Z,7.47
2023-03-04T23:28:22.409Z,6.88
2023-03-04T23:31:08.177Z,5.93
2023-03-04T23:33:57.456Z,6.57
2023-03-04T23:36:43.355Z,6.95
2023-03-04T23:39:28.772Z,6.00
2023-03-04T23:42:14.553Z,6.45
2023-03-04T23:44:59.884Z,7.50
2023-03-04T23:47:45.453Z,6.75
2023-03-04T23:50:32.171Z,6.97
2023-03-04T23:53:19.213Z,6.10
2023-03-04T23:56:13.621Z,7.35
2023-03-04T23:58:59.954Z,6.78
